Time;durP1;ratioP1;P1;durP2;ratioP2;P2;SDS_P1;SDS_P2;PMS_P1;PMS_P2;Temp;Humidity;BMP_temperature;BMP_pressure;BME280_temperature;BME280_humidity;BME280_pressure;Samples;Min_cycle;Max_cycle;Signal;HPM_P1;HPM_P2
2023/05/09 00:01:30;;;;;;;4.72;3.60;;;;;;;22.72;57.40;101358.84;5056085;28;20052;-54
2023/05/09 00:03:58;;;;;;;4.60;3.65;;;;;;;22.72;57.40;101353.47;5056110;28;20049;-54
2023/05/09 00:06:26;;;;;;;6.30;3.83;;;;;;;22.71;57.54;101366.09;5055978;28;20387;-54
2023/05/09 00:08:54;;;;;;;5.75;3.75;;;;;;;22.71;57.33;101352.59;5055909;28;20371;-53
2023/05/09 00:11:21;;;;;;;4.00;3.42;;;;;;;22.71;57.58;101368.81;5055922;28;20055;-55
2023/05/09 00:13:50;;;;;;;4.22;3.35;;;;;;;22.73;57.40;101365.09;5055681;28;20037;-55
2023/05/09 00:16:19;;;;;;;6.05;3.80;;;;;;;22.71;57.38;101354.47;5055921;28;20056;-55
2023/05/09 00:18:47;;;;;;;7.70;3.60;;;;;;;22.70;57.54;101350.06;5055843;28;20048;-55
2023/05/09 00:21:14;;;;;;;6.28;4.20;;;;;;;22.71;57.64;101349.06;5055878;28;20056;-55
2023/05/09 00:23:41;;;;;;;5.20;3.70;;;;;;;22.70;57.52;101350.06;5055655;28;20056;-55
2023/05/09 00:26:09;;;;;;;4.35;3.92;;;;;;;22.72;57.91;101348.06;5055531;28;20052;-55
2023/05/09 00:28:39;;;;;;;4.55;3.50;;;;;;;22.70;57.56;101353.63;5055568;28;20049;-55
2023/05/09 00:31:06;;;;;;;4.85;3.15;;;;;;;22.71;57.72;101351.75;5054577;28;20453;-55
2023/05/09 00:33:33;;;;;;;5.75;3.60;;;;;;;22.70;57.72;101350.91;5055525;28;20083;-55
2023/05/09 00:36:00;;;;;;;5.10;4.05;;;;;;;22.69;58.03;101349.22;5055348;28;20049;-55
2023/05/09 00:38:28;;;;;;;4.03;3.50;;;;;;;22.69;57.80;101353.78;5055311;28;20044;-55
2023/05/09 00:40:55;;;;;;;5.53;4.30;;;;;;;22.69;57.81;101354.63;5055495;28;20049;-53
2023/05/09 00:43:22;;;;;;;3.47;2.85;;;;;;;22.69;57.84;101348.38;5054396;28;20055;-54
2023/05/09 00:45:50;;;;;;;5.70;3.90;;;;;;;22.70;57.67;101350.06;5055393;28;20525;-53
2023/05/09 00:48:17;;;;;;;5.50;3.35;;;;;;;22.70;57.74;101344.66;5055532;28;20049;-53
2023/05/09 00:50:45;;;;;;;4.53;3.80;;;;;;;22.69;57.59;101348.38;5055483;28;20403;-56
2023/05/09 00:53:13;;;;;;;4.53;3.60;;;;;;;22.69;57.81;101349.22;5053802;28;20053;-55
2023/05/09 00:55:41;;;;;;;4.00;3.38;;;;;;;22.70;57.83;101350.91;5053823;28;20049;-55
2023/05/09 00:58:08;;;;;;;4.47;3.60;;;;;;;22.69;57.67;101357.31;5055084;28;20053;-55
2023/05/09 01:00:36;;;;;;;4.30;3.60;;;;;;;22.68;57.86;101344.78;5054410;28;20487;-55
2023/05/09 01:03:03;;;;;;;5.10;4.00;;;;;;;22.69;57.75;101349.22;5055127;28;20057;-55
2023/05/09 01:05:55;;;;;;;5.82;3.75;;;;;;;22.70;58.13;101334.72;5053575;28;20053;-55
2023/05/09 01:08:56;;;;;;;5.68;3.72;;;;;;;22.71;57.97;101330.16;5054505;28;20426;-55
2023/05/09 01:11:44;;;;;;;5.63;3.72;;;;;;;22.71;58.03;101330.16;5054748;28;20044;-55
2023/05/09 01:14:37;;;;;;;5.47;4.00;;;;;;;22.70;57.86;101329.31;5054617;28;20403;-56
2023/05/09 01:17:12;;;;;;;4.90;3.63;;;;;;;22.71;58.00;101327.47;5054726;28;20494;-55
2023/05/09 01:20:01;;;;;;;4.28;3.70;;;;;;;22.71;58.15;101324.78;5053444;28;20057;-55
2023/05/09 01:22:35;;;;;;;5.20;4.40;;;;;;;22.71;58.42;101316.69;5054473;28;20041;-55
2023/05/09 01:25:12;;;;;;;4.88;3.80;;;;;;;22.70;58.27;101317.69;5054888;28;20060;-55
2023/05/09 01:27:52;;;;;;;4.85;3.53;;;;;;;22.70;58.19;101317.69;5054487;28;20356;-55
2023/05/09 01:30:20;;;;;;;4.28;3.33;;;;;;;22.70;58.38;101323.94;5054458;28;20045;-55
2023/05/09 01:32:50;;;;;;;5.75;3.97;;;;;;;22.69;58.33;101319.53;5054474;28;20052;-55
2023/05/09 01:35:23;;;;;;;4.82;3.88;;;;;;;22.69;58.35;101319.53;5054237;28;20056;-55
2023/05/09 01:37:53;;;;;;;5.03;3.85;;;;;;;22.69;58.42;101322.22;5054266;28;20045;-55
2023/05/09 01:40:24;;;;;;;7.32;4.05;;;;;;;22.69;58.28;101321.38;5054326;28;20049;-56
2023/05/09 01:43:05;;;;;;;4.80;4.13;;;;;;;22.70;58.21;101317.69;5054420;28;20041;-57
2023/05/09 01:45:35;;;;;;;4.68;4.07;;;;;;;22.68;58.35;101309.69;5054090;28;20537;-54
2023/05/09 01:48:05;;;;;;;5.80;4.53;;;;;;;22.68;58.20;101315.09;5053605;28;20048;-54
2023/05/09 01:50:34;;;;;;;5.78;4.03;;;;;;;22.68;58.35;101323.19;5054344;28;20044;-55
2023/05/09 01:53:04;;;;;;;6.65;4.32;;;;;;;22.68;58.36;101320.50;5054012;28;20375;-55
2023/05/09 01:55:35;;;;;;;4.82;3.72;;;;;;;22.68;58.45;101315.09;5053002;28;20068;-55
2023/05/09 01:58:04;;;;;;;9.15;4.15;;;;;;;22.67;58.19;101318.81;5054048;28;20056;-55
2023/05/09 02:00:33;;;;;;;5.22;3.70;;;;;;;22.69;58.52;101324.06;5052906;28;20356;-54
2023/05/09 02:03:03;;;;;;;4.32;3.35;;;;;;;22.68;58.56;101308.84;5053791;28;20045;-55
2023/05/09 02:05:32;;;;;;;5.18;3.90;;;;;;;22.67;58.66;101310.72;5053004;28;20471;-54
2023/05/09 02:07:59;;;;;;;4.45;3.58;;;;;;;22.68;58.45;101317.81;5053873;28;20052;-55
2023/05/09 02:10:27;;;;;;;5.75;4.20;;;;;;;22.67;58.57;101318.81;5052039;28;20387;-55
2023/05/09 02:12:56;;;;;;;6.78;3.67;;;;;;;22.67;58.55;101313.41;5052257;28;20484;-54
2023/05/09 02:15:24;;;;;;;5.80;3.95;;;;;;;22.67;58.60;101318.81;5051978;28;20513;-54
2023/05/09 02:17:52;;;;;;;4.38;3.92;;;;;;;22.68;58.41;101322.34;5053761;28;20045;-54
2023/05/09 02:20:19;;;;;;;5.32;3.88;;;;;;;22.68;58.76;101327.75;5052368;28;20480;-55
2023/05/09 02:22:47;;;;;;;4.70;4.13;;;;;;;22.67;58.73;101324.19;5053545;28;20045;-55
2023/05/09 02:25:14;;;;;;;5.65;3.83;;;;;;;22.68;58.55;101328.59;5053952;28;20056;-54
2023/05/09 02:27:45;;;;;;;5.13;4.45;;;;;;;22.68;58.46;101333.16;5052334;28;20052;-54
2023/05/09 02:30:23;;;;;;;5.28;4.10;;;;;;;22.67;58.75;101335.00;5053666;28;20048;-57
2023/05/09 02:32:57;;;;;;;5.28;4.10;;;;;;;22.67;58.72;101324.19;5052586;28;20060;-57
2023/05/09 02:35:27;;;;;;;7.38;3.88;;;;;;;22.66;58.66;101319.81;5052066;28;20056;-57
2023/05/09 02:37:56;;;;;;;4.20;3.65;;;;;;;22.68;58.71;101312.41;5052467;28;20056;-57
2023/05/09 02:40:25;;;;;;;4.40;3.50;;;;;;;22.67;58.60;101310.72;5052485;28;20056;-57
2023/05/09 02:42:53;;;;;;;4.90;3.45;;;;;;;22.68;58.78;101323.19;5053331;28;20411;-57
2023/05/09 02:45:21;;;;;;;6.55;3.85;;;;;;;22.67;58.67;101326.06;5052437;28;20410;-57
2023/05/09 02:47:48;;;;;;;5.00;4.13;;;;;;;22.66;58.56;101322.50;5053337;28;20049;-57
2023/05/09 02:50:15;;;;;;;5.22;3.92;;;;;;;22.67;58.81;101326.91;5051979;28;20652;-57
2023/05/09 02:52:43;;;;;;;4.85;3.78;;;;;;;22.67;58.66;101326.91;5052295;28;20474;-57
2023/05/09 02:55:10;;;;;;;5.07;3.60;;;;;;;22.68;58.76;101319.66;5052281;28;20056;-57
2023/05/09 02:57:40;;;;;;;3.92;3.40;;;;;;;22.66;58.67;101310.84;5052247;28;20056;-57
2023/05/09 03:00:08;;;;;;;5.40;4.13;;;;;;;22.67;58.80;101309.84;5053411;28;20045;-57
2023/05/09 03:02:36;;;;;;;5.43;3.65;;;;;;;22.67;58.73;101309.84;5051992;28;20068;-57
2023/05/09 03:05:06;;;;;;;7.05;3.90;;;;;;;22.67;58.85;101312.56;5052332;28;20045;-57
2023/05/09 03:07:35;;;;;;;5.28;4.38;;;;;;;22.66;58.63;101310.84;5052114;28;20056;-57
2023/05/09 03:10:02;;;;;;;6.43;3.90;;;;;;;22.66;58.89;101300.91;5051925;28;20061;-57
2023/05/09 03:12:31;;;;;;;5.90;3.80;;;;;;;22.66;58.81;101303.63;5051485;28;20056;-57
2023/05/09 03:14:58;;;;;;;4.53;3.92;;;;;;;22.65;58.74;101295.66;5051112;28;20053;-57
2023/05/09 03:17:25;;;;;;;5.18;4.68;;;;;;;22.67;59.08;101301.75;5051849;28;20056;-57
2023/05/09 03:19:52;;;;;;;5.22;3.53;;;;;;;22.66;58.79;101305.47;5053358;28;20056;-55
2023/05/09 03:22:20;;;;;;;5.65;3.75;;;;;;;22.66;58.85;101311.72;5057030;28;20053;-55
2023/05/09 03:24:54;;;;;;;6.45;4.15;;;;;;;22.67;58.99;101308.00;5055596;28;20498;-54
2023/05/09 03:27:22;;;;;;;4.60;3.95;;;;;;;22.67;59.07;101308.00;5055811;28;20404;-55
2023/05/09 03:29:50;;;;;;;6.75;4.07;;;;;;;22.67;58.87;101289.13;5055533;28;20479;-55
2023/05/09 03:32:19;;;;;;;5.32;4.20;;;;;;;22.68;58.90;101298.91;5055003;28;20056;-53
2023/05/09 03:34:46;;;;;;;5.05;3.92;;;;;;;22.68;58.71;101290.81;5055104;28;20057;-55
2023/05/09 03:37:14;;;;;;;6.28;4.53;;;;;;;22.69;58.74;101297.09;5056569;28;20049;-55
2023/05/09 03:39:42;;;;;;;4.82;3.97;;;;;;;22.68;58.98;101292.66;5055549;28;20056;-55
2023/05/09 03:42:10;;;;;;;6.00;4.57;;;;;;;22.67;58.87;101305.31;5055530;28;20057;-54
2023/05/09 03:44:38;;;;;;;5.50;4.32;;;;;;;22.67;58.83;101297.22;5055109;28;20045;-54
2023/05/09 03:47:06;;;;;;;6.78;3.90;;;;;;;22.67;59.02;101299.91;5055174;28;20053;-55
2023/05/09 03:49:37;;;;;;;5.38;4.25;;;;;;;22.67;59.08;101299.91;5055080;28;20379;-55
2023/05/09 03:52:06;;;;;;;5.50;3.80;;;;;;;22.66;58.98;101298.22;5054895;28;20063;-55
2023/05/09 03:54:33;;;;;;;6.70;4.55;;;;;;;22.66;58.84;101295.50;5055199;28;20068;-54
2023/05/09 03:57:02;;;;;;;10.25;4.53;;;;;;;22.66;58.78;101297.38;5054849;28;20439;-55
2023/05/09 03:59:29;;;;;;;4.63;3.97;;;;;;;22.65;58.98;101304.63;5054970;28;20053;-55
2023/05/09 04:01:57;;;;;;;6.60;4.18;;;;;;;22.65;58.92;101306.47;5055119;28;20053;-55
2023/05/09 04:04:26;;;;;;;5.32;4.22;;;;;;;22.64;59.00;101304.75;5054840;28;20041;-55
2023/05/09 04:06:54;;;;;;;6.18;4.28;;;;;;;22.64;58.97;101313.69;5054728;28;20052;-54
2023/05/09 04:09:21;;;;;;;5.30;4.53;;;;;;;22.66;58.90;101321.66;5056206;28;20506;-56
2023/05/09 04:11:50;;;;;;;6.30;3.97;;;;;;;22.65;58.90;101325.34;5054712;28;20060;-57
2023/05/09 04:14:17;;;;;;;4.97;3.85;;;;;;;22.64;58.95;101321.78;5055906;28;20140;-57
2023/05/09 04:16:45;;;;;;;5.47;3.97;;;;;;;22.63;58.83;101325.47;5055778;28;20629;-57
2023/05/09 04:19:13;;;;;;;5.85;4.53;;;;;;;22.64;58.72;101319.06;5054224;28;20064;-57
2023/05/09 04:21:41;;;;;;;7.60;4.30;;;;;;;22.63;58.76;101316.53;5055928;28;20511;-55
2023/05/09 04:24:08;;;;;;;6.00;4.57;;;;;;;22.64;58.77;101315.53;5054647;28;20107;-54
2023/05/09 04:26:41;;;;;;;8.07;4.18;;;;;;;22.63;58.77;101317.38;5054755;28;20045;-55
2023/05/09 04:29:12;;;;;;;6.70;3.83;;;;;;;22.63;58.99;101321.94;5054644;28;20049;-55
2023/05/09 04:31:40;;;;;;;6.43;4.50;;;;;;;22.63;58.71;101327.31;5054199;28;20049;-55
2023/05/09 04:34:11;;;;;;;5.05;4.25;;;;;;;22.63;58.78;101321.94;5055552;28;20403;-55
2023/05/09 04:36:38;;;;;;;6.50;5.00;;;;;;;22.62;58.90;101313.00;5054227;28;20060;-55
2023/05/09 04:39:07;;;;;;;5.10;3.83;;;;;;;22.62;58.50;101313.00;5054120;28;20053;-54
2023/05/09 04:41:35;;;;;;;6.20;4.43;;;;;;;22.62;58.59;101321.09;5053896;28;20378;-57
2023/05/09 04:44:03;;;;;;;5.45;3.88;;;;;;;22.62;58.98;101318.38;5054802;28;20040;-57
2023/05/09 04:46:31;;;;;;;6.13;4.28;;;;;;;22.62;58.66;101320.22;5053873;28;20515;-57
2023/05/09 04:48:58;;;;;;;5.03;3.92;;;;;;;22.63;58.89;101321.94;5055353;28;20049;-57
2023/05/09 04:51:26;;;;;;;4.95;4.07;;;;;;;22.62;58.88;101315.69;5055279;28;20052;-57
2023/05/09 04:53:53;;;;;;;5.10;4.45;;;;;;;22.62;58.76;101323.78;5054262;28;20383;-57
2023/05/09 04:56:25;;;;;;;5.17;4.30;;;;;;;22.61;58.66;101319.38;5053839;28;20056;-57
2023/05/09 04:58:52;;;;;;;6.05;4.10;;;;;;;22.62;58.59;101331.03;5055236;28;20068;-57
2023/05/09 05:01:20;;;;;;;6.38;4.13;;;;;;;22.62;58.66;101331.88;5053940;28;20060;-54
2023/05/09 05:03:48;;;;;;;4.38;3.72;;;;;;;22.61;58.89;101335.56;5053925;28;20057;-55
2023/05/09 05:06:15;;;;;;;5.38;4.00;;;;;;;22.61;58.70;101330.19;5053944;28;20059;-55
2023/05/09 05:08:43;;;;;;;5.07;4.03;;;;;;;22.62;58.88;101336.44;5053310;28;20383;-55
2023/05/09 05:11:12;;;;;;;4.60;4.00;;;;;;;22.62;58.52;101339.13;5053963;28;20052;-57
2023/05/09 05:13:39;;;;;;;5.03;3.75;;;;;;;22.61;58.76;101332.88;5052957;28;20063;-55
2023/05/09 05:16:07;;;;;;;5.78;3.50;;;;;;;22.61;58.55;101335.56;5053453;28;20053;-57
2023/05/09 05:18:35;;;;;;;4.18;3.38;;;;;;;22.62;58.57;101328.34;5054004;28;20395;-57
2023/05/09 05:21:02;;;;;;;5.22;4.10;;;;;;;22.60;58.72;101328.44;5053441;28;20048;-57
2023/05/09 05:23:29;;;;;;;5.70;3.97;;;;;;;22.61;58.73;101335.56;5054046;28;20056;-57
2023/05/09 05:25:57;;;;;;;5.15;3.53;;;;;;;22.60;58.50;101336.56;5053521;28;20056;-57
2023/05/09 05:28:25;;;;;;;4.88;3.85;;;;;;;22.61;58.60;101353.63;5053194;28;20060;-57
2023/05/09 05:30:52;;;;;;;5.00;3.90;;;;;;;22.60;58.69;101350.03;5053765;28;20045;-57
2023/05/09 05:33:20;;;;;;;5.40;4.20;;;;;;;22.60;58.45;101355.44;5054263;28;20052;-57
2023/05/09 05:35:47;;;;;;;4.53;3.60;;;;;;;22.59;58.51;101353.75;5052924;28;20490;-57
2023/05/09 05:38:14;;;;;;;4.82;4.07;;;;;;;22.60;58.74;101350.03;5054400;28;20049;-57
2023/05/09 05:40:46;;;;;;;5.22;3.92;;;;;;;22.60;58.28;101350.03;5053448;28;20057;-57
2023/05/09 05:43:14;;;;;;;5.40;3.65;;;;;;;22.60;58.59;101355.44;5053863;28;20049;-57
2023/05/09 05:45:41;;;;;;;4.40;4.00;;;;;;;22.60;58.70;101352.75;5052261;28;20068;-57
2023/05/09 05:48:14;;;;;;;5.07;4.07;;;;;;;22.61;58.60;101350.91;5053373;28;20533;-57
2023/05/09 05:50:42;;;;;;;4.35;3.78;;;;;;;22.60;58.51;101344.66;5054233;28;20048;-57
2023/05/09 05:53:11;;;;;;;4.55;3.58;;;;;;;22.60;58.51;101344.66;5053157;28;20063;-57
2023/05/09 05:55:39;;;;;;;4.72;3.53;;;;;;;22.60;58.49;101341.94;5053491;28;20053;-57
2023/05/09 05:58:06;;;;;;;5.07;3.70;;;;;;;22.61;58.51;101353.63;5054695;28;20048;-57
2023/05/09 06:00:35;;;;;;;6.18;3.92;;;;;;;22.61;58.66;101357.16;5053047;28;20063;-54
2023/05/09 06:03:05;;;;;;;4.32;3.83;;;;;;;22.60;58.46;101350.03;5052301;28;20048;-55
2023/05/09 06:05:47;;;;;;;3.70;3.30;;;;;;;22.60;58.56;101343.78;5052840;28;20056;-54
2023/05/09 06:08:15;;;;;;;5.72;4.07;;;;;;;22.59;58.31;101342.94;5052410;28;20068;-55
2023/05/09 06:10:42;;;;;;;4.05;3.47;;;;;;;22.59;58.83;101334.84;5052640;28;20045;-57
2023/05/09 06:13:10;;;;;;;4.40;3.85;;;;;;;22.60;58.45;101339.25;5052736;28;20057;-57
2023/05/09 06:15:41;;;;;;;6.90;3.75;;;;;;;22.60;58.52;101338.41;5052199;28;20049;-57
2023/05/09 06:18:09;;;;;;;4.55;3.60;;;;;;;22.60;58.61;101341.09;5052790;28;20056;-57
2023/05/09 06:20:37;;;;;;;5.10;3.90;;;;;;;22.60;58.46;101336.56;5052620;28;20049;-55
2023/05/09 06:23:04;;;;;;;3.50;3.00;;;;;;;22.61;58.65;101334.72;5053731;28;20054;-55
2023/05/09 06:25:31;;;;;;;4.32;3.17;;;;;;;22.61;58.58;101334.72;5052551;28;20506;-55
2023/05/09 06:27:58;;;;;;;3.95;3.25;;;;;;;22.61;58.62;101330.19;5053420;28;20044;-55
2023/05/09 06:30:26;;;;;;;10.43;3.92;;;;;;;22.61;58.39;101345.53;5053737;28;20041;-55
2023/05/09 06:32:54;;;;;;;4.78;3.55;;;;;;;22.61;58.63;101348.22;5053426;28;20049;-55
2023/05/09 06:35:21;;;;;;;7.05;4.22;;;;;;;22.61;58.73;101335.56;5053640;28;20052;-55
2023/05/09 06:37:49;;;;;;;4.85;3.92;;;;;;;22.61;57.72;101332.88;5053510;28;20048;-52
2023/05/09 06:40:16;;;;;;;6.93;5.22;;;;;;;22.57;56.16;101327.91;5053475;28;20056;-58
2023/05/09 06:42:44;;;;;;;9.15;5.30;;;;;;;22.53;55.18;101340.81;5053499;28;20379;-59
2023/05/09 06:45:11;;;;;;;8.18;5.65;;;;;;;22.49;55.11;101342.09;5053391;28;20041;-59
2023/05/09 06:47:39;;;;;;;6.32;5.40;;;;;;;22.44;55.25;101342.53;5053547;28;20056;-59
2023/05/09 06:50:07;;;;;;;9.05;6.25;;;;;;;22.42;54.91;101339.09;5053326;28;20045;-59
2023/05/09 06:52:34;;;;;;;7.30;6.25;;;;;;;22.41;55.45;101341.94;5053386;28;20052;-59
2023/05/09 06:55:03;;;;;;;7.93;6.32;;;;;;;22.37;55.59;101335.97;5053360;28;20068;-59
2023/05/09 06:57:30;;;;;;;8.30;6.07;;;;;;;22.35;55.56;101337.94;5056396;28;20399;-59
2023/05/09 06:59:57;;;;;;;8.82;6.93;;;;;;;22.35;55.79;101339.78;5057159;28;20049;-54
2023/05/09 07:02:25;;;;;;;8.25;5.72;;;;;;;22.32;55.96;101345.47;5056917;28;20060;-54
2023/05/09 07:04:52;;;;;;;8.20;5.88;;;;;;;22.32;56.26;101334.66;5054598;28;20049;-54
2023/05/09 07:07:19;;;;;;;8.07;6.18;;;;;;;22.30;56.14;101340.22;5057001;28;20368;-54
2023/05/09 07:09:47;;;;;;;8.70;6.90;;;;;;;22.30;56.19;101332.13;5056623;28;20045;-61
2023/05/09 07:12:19;;;;;;;7.63;5.45;;;;;;;22.30;56.20;101329.44;5076459;28;20056;-60
2023/05/09 07:14:46;;;;;;;8.65;5.43;;;;;;;22.30;56.19;101326.72;5076708;28;20060;-60
2023/05/09 07:17:14;;;;;;;8.65;6.22;;;;;;;22.32;56.18;101324.75;5076503;28;20045;-59
2023/05/09 07:19:50;;;;;;;8.48;7.43;;;;;;;22.30;55.42;101324.03;5076911;28;20475;-59
2023/05/09 07:22:17;;;;;;;9.35;6.63;;;;;;;22.31;55.79;101322.19;5076331;28;20056;-59
2023/05/09 07:24:45;;;;;;;8.85;6.47;;;;;;;22.28;55.19;101317.06;5076578;28;20049;-58
2023/05/09 07:27:12;;;;;;;10.05;6.78;;;;;;;22.28;54.91;101317.06;5075117;28;20048;-57
2023/05/09 07:29:40;;;;;;;10.77;6.03;;;;;;;22.29;55.67;101311.53;5076091;28;20049;-56
2023/05/09 07:32:07;;;;;;;8.25;5.55;;;;;;;22.32;55.52;101315.78;5075728;28;20048;-56
2023/05/09 07:34:35;;;;;;;7.35;5.60;;;;;;;22.34;55.61;101319.22;5076366;28;20387;-54
2023/05/09 07:37:02;;;;;;;6.65;5.18;;;;;;;22.36;55.86;101315.41;5076226;28;20402;-56
2023/05/09 07:39:30;;;;;;;8.90;5.75;;;;;;;22.38;55.79;101318.78;5076172;28;20474;-54
2023/05/09 07:41:57;;;;;;;8.60;5.90;;;;;;;22.41;55.62;101306.88;5075859;28;20052;-56
2023/05/09 07:44:24;;;;;;;7.60;5.95;;;;;;;22.42;55.51;101300.47;5076314;28;20049;-57
2023/05/09 07:46:54;;;;;;;8.40;6.18;;;;;;;22.44;55.54;101302.06;5075823;28;20045;-50
2023/05/09 07:49:21;;;;;;;6.82;5.70;;;;;;;22.46;56.24;101299.22;5075852;28;20053;-56
2023/05/09 07:51:48;;;;;;;8.10;6.03;;;;;;;22.47;55.76;101298.22;5075553;28;20044;-50
2023/05/09 07:54:16;;;;;;;6.57;5.85;;;;;;;22.48;55.65;101299.91;5075641;28;20052;-55
2023/05/09 07:56:43;;;;;;;8.32;6.57;;;;;;;22.48;55.77;101297.19;5075889;28;20041;-54
2023/05/09 07:59:11;;;;;;;10.88;7.18;;;;;;;22.48;55.15;101289.09;5076073;28;20396;-55
2023/05/09 08:01:38;;;;;;;9.07;6.65;;;;;;;22.48;55.14;101294.50;5075717;28;20048;-56
2023/05/09 08:04:07;;;;;;;7.63;5.78;;;;;;;22.49;55.44;101290.84;5075962;28;20045;-56
2023/05/09 08:06:35;;;;;;;7.50;5.78;;;;;;;22.51;55.61;101291.53;5074825;28;20406;-55
2023/05/09 08:09:03;;;;;;;8.27;4.78;;;;;;;22.54;55.90;101301.19;5075493;28;20044;-57
2023/05/09 08:11:34;;;;;;;5.57;4.57;;;;;;;22.57;56.37;101309.03;5075594;28;20048;-58
2023/05/09 08:14:02;;;;;;;5.45;4.20;;;;;;;22.57;56.18;101311.72;5075628;28;20052;-59
2023/05/09 08:16:29;;;;;;;6.78;4.88;;;;;;;22.58;56.47;101311.56;5075490;28;20045;-57
2023/05/09 08:18:57;;;;;;;7.90;5.60;;;;;;;22.61;56.03;101307.75;5075705;28;20056;-56
2023/05/09 08:21:25;;;;;;;8.88;5.45;;;;;;;22.60;55.81;101304.16;5075706;28;20051;-57
2023/05/09 08:23:52;;;;;;;7.05;5.68;;;;;;;22.61;55.79;101299.66;5075171;28;20044;-58
2023/05/09 08:26:21;;;;;;;7.32;5.40;;;;;;;22.63;56.32;101297.66;5075505;28;20063;-59
2023/05/09 08:28:48;;;;;;;7.20;5.70;;;;;;;22.65;56.36;101298.38;5075311;28;20055;-59
2023/05/09 08:31:16;;;;;;;8.13;5.75;;;;;;;22.66;56.04;101294.66;5075650;28;20504;-56
2023/05/09 08:33:43;;;;;;;6.57;5.45;;;;;;;22.66;56.19;101298.22;5075002;28;20405;-57
2023/05/09 08:36:10;;;;;;;7.57;5.63;;;;;;;22.67;56.13;101302.59;5075435;28;20052;-55
2023/05/09 08:38:39;;;;;;;7.80;4.93;;;;;;;22.67;56.36;101299.06;5075225;28;20055;-55
2023/05/09 08:41:06;;;;;;;8.95;4.93;;;;;;;22.68;56.26;101303.47;5075274;28;20398;-58
2023/05/09 08:43:34;;;;;;;9.43;5.32;;;;;;;22.68;56.49;101301.59;5075154;28;20049;-59
2023/05/09 08:46:08;;;;;;;8.40;6.00;;;;;;;22.69;56.08;101299.78;5074939;28;20045;-54
2023/05/09 08:48:38;;;;;;;8.60;5.95;;;;;;;22.70;56.05;101291.53;5075267;28;20040;-57
2023/05/09 08:51:06;;;;;;;7.88;5.38;;;;;;;22.70;56.25;101291.53;5074994;28;20044;-57
2023/05/09 08:53:34;;;;;;;7.78;5.28;;;;;;;22.71;56.63;101289.69;5074440;28;20052;-57
2023/05/09 08:56:04;;;;;;;6.10;4.72;;;;;;;22.71;56.66;101293.22;5074243;28;20052;-55
2023/05/09 08:58:33;;;;;;;6.63;5.28;;;;;;;22.74;56.69;101288.56;5075214;28;20052;-56
2023/05/09 09:01:03;;;;;;;6.03;4.50;;;;;;;22.74;56.78;101291.25;5074776;28;20052;-56
2023/05/09 09:03:31;;;;;;;8.23;4.55;;;;;;;22.76;56.82;101283.84;5074554;28;20037;-57
2023/05/09 09:05:59;;;;;;;6.72;5.22;;;;;;;22.76;56.85;101283.84;5073144;28;20049;-58
2023/05/09 09:08:28;;;;;;;6.47;5.20;;;;;;;22.77;57.03;101280.16;5074217;28;20048;-58
2023/05/09 09:10:56;;;;;;;7.38;4.95;;;;;;;22.77;58.26;101282.84;5074457;28;20049;-58
2023/05/09 09:13:24;;;;;;;7.38;5.35;;;;;;;22.79;59.68;101278.19;5074660;28;20052;-57
2023/05/09 09:15:52;;;;;;;7.85;5.43;;;;;;;22.78;60.33;101280.03;5074216;28;20057;-57
2023/05/09 09:18:22;;;;;;;7.43;5.05;;;;;;;22.78;61.54;101271.94;5074344;28;20055;-57
2023/05/09 09:20:56;;;;;;;5.63;4.97;;;;;;;22.78;61.31;101271.09;5074487;28;20048;-54
2023/05/09 09:23:25;;;;;;;10.85;5.68;;;;;;;22.77;60.67;101263.94;5073930;28;20048;-53
2023/05/09 09:26:00;;;;;;;7.38;5.38;;;;;;;22.77;61.46;101263.94;5074012;28;20045;-56
2023/05/09 09:28:28;;;;;;;6.47;5.78;;;;;;;22.76;62.04;101263.09;5074449;28;20044;-56
2023/05/09 09:30:55;;;;;;;6.28;5.22;;;;;;;22.75;62.53;101266.81;5074079;28;20522;-55
2023/05/09 09:33:25;;;;;;;6.63;5.53;;;;;;;22.75;62.39;101263.25;5074176;28;20044;-56
2023/05/09 09:35:53;;;;;;;7.93;5.07;;;;;;;22.75;62.27;101255.16;5073236;28;20053;-56
2023/05/09 09:38:23;;;;;;;6.72;5.10;;;;;;;22.75;63.25;101247.91;5073964;28;20414;-55
2023/05/09 09:40:53;;;;;;;7.95;5.07;;;;;;;22.74;62.72;101250.78;5073964;28;20056;-51
2023/05/09 09:43:29;;;;;;;6.00;4.85;;;;;;;22.74;62.09;101248.91;5072986;28;20060;-53
2023/05/09 09:46:01;;;;;;;6.47;4.82;;;;;;;22.75;62.69;101244.38;5073621;28;20049;-58
2023/05/09 09:48:35;;;;;;;7.20;5.60;;;;;;;22.76;63.39;101246.91;5073894;28;20048;-57
2023/05/09 09:51:11;;;;;;;5.65;5.05;;;;;;;22.76;62.09;101248.75;5073590;28;20052;-57
2023/05/09 09:53:42;;;;;;;6.88;4.78;;;;;;;22.76;61.90;101246.91;5069916;28;20045;-58
2023/05/09 09:56:10;;;;;;;6.30;4.70;;;;;;;22.76;63.15;101249.63;5068972;28;20151;-54
2023/05/09 09:58:37;;;;;;;6.78;5.63;;;;;;;22.76;65.96;101249.63;5074019;28;20048;-55
2023/05/09 10:01:08;;;;;;;9.77;5.70;;;;;;;22.74;64.73;101242.69;5073838;28;20045;-57
2023/05/09 10:03:36;;;;;;;6.43;4.93;;;;;;;22.73;63.13;101246.34;5073733;28;20044;-57
2023/05/09 10:06:04;;;;;;;6.80;5.22;;;;;;;22.74;65.51;101248.06;5072874;28;20044;-57
2023/05/09 10:08:31;;;;;;;8.60;5.50;;;;;;;22.73;64.14;101243.66;5073538;28;20398;-57
2023/05/09 10:10:59;;;;;;;7.68;5.13;;;;;;;22.71;63.99;101241.94;5073725;28;20044;-57
2023/05/09 10:13:27;;;;;;;6.72;5.53;;;;;;;22.71;63.73;101249.19;5073210;28;20486;-57
2023/05/09 10:15:56;;;;;;;6.45;5.35;;;;;;;22.71;64.02;101243.81;5073037;28;20060;-57
2023/05/09 10:18:27;;;;;;;7.10;5.32;;;;;;;22.70;64.34;101242.09;5073089;28;20040;-57
2023/05/09 10:21:02;;;;;;;6.95;4.65;;;;;;;22.70;64.52;101242.09;5073090;28;20493;-57
2023/05/09 10:23:31;;;;;;;7.25;4.95;;;;;;;22.69;64.29;101243.09;5073106;28;20051;-56
2023/05/09 10:26:16;;;;;;;7.13;5.28;;;;;;;22.69;64.32;101243.09;5073064;28;20044;-57
2023/05/09 10:28:46;;;;;;;6.72;5.18;;;;;;;22.67;64.24;101237.00;5072994;28;20474;-57
2023/05/09 10:31:20;;;;;;;7.13;5.18;;;;;;;22.67;64.59;101237.00;5072332;28;20044;-57
2023/05/09 10:33:49;;;;;;;6.22;4.70;;;;;;;22.66;64.04;101230.75;5072924;28;20051;-57
2023/05/09 10:36:22;;;;;;;6.05;5.03;;;;;;;22.66;64.52;101229.91;5072958;28;20540;-56
2023/05/09 10:38:52;;;;;;;6.95;5.28;;;;;;;22.65;64.61;101223.66;5072951;28;20045;-56
2023/05/09 10:41:20;;;;;;;7.28;5.03;;;;;;;22.65;65.08;101228.19;5073021;28;20045;-55
2023/05/09 10:43:48;;;;;;;8.20;5.32;;;;;;;22.66;65.11;101225.34;5072816;28;20052;-54
2023/05/09 10:46:16;;;;;;;5.55;4.95;;;;;;;22.66;65.81;101225.34;5072759;28;20044;-53
2023/05/09 10:48:44;;;;;;;6.18;5.45;;;;;;;22.65;65.08;101217.41;5072594;28;20394;-53
2023/05/09 10:51:12;;;;;;;8.05;5.82;;;;;;;22.64;65.29;101221.06;5072849;28;20409;-55
2023/05/09 10:53:47;;;;;;;6.00;5.10;;;;;;;22.64;64.77;101218.38;5072728;28;20055;-53
2023/05/09 10:56:31;;;;;;;6.80;5.57;;;;;;;22.64;65.37;101212.97;5072691;28;20056;-53
2023/05/09 10:58:59;;;;;;;6.65;5.28;;;;;;;22.64;65.16;101205.72;5072703;28;20052;-55
2023/05/09 11:01:36;;;;;;;6.40;5.03;;;;;;;22.63;65.33;101198.63;5072671;28;20047;-55
2023/05/09 11:04:13;;;;;;;5.78;5.18;;;;;;;22.63;65.75;101195.94;5072787;28;20056;-55
2023/05/09 11:06:40;;;;;;;6.50;5.03;;;;;;;22.63;65.05;101195.09;5072540;28;20402;-55
2023/05/09 11:09:37;;;;;;;7.40;5.55;;;;;;;22.63;65.68;101190.53;5072657;28;20049;-53
2023/05/09 11:12:09;;;;;;;6.43;5.07;;;;;;;22.63;66.34;101176.19;5072352;28;20502;-58
2023/05/09 11:14:36;;;;;;;6.95;4.85;;;;;;;22.63;66.37;101177.06;5070948;28;20052;-55
2023/05/09 11:17:10;;;;;;;6.82;5.25;;;;;;;22.62;66.42;101182.59;5072308;28;20048;-55
2023/05/09 11:19:46;;;;;;;6.03;4.75;;;;;;;22.62;65.70;101179.91;5072456;28;20056;-55
2023/05/09 11:22:15;;;;;;;7.05;5.18;;;;;;;22.61;66.52;101173.66;5072535;28;20410;-55
2023/05/09 11:24:58;;;;;;;6.80;4.57;;;;;;;22.62;66.62;101169.13;5072038;28;20052;-55
2023/05/09 11:27:27;;;;;;;7.70;5.65;;;;;;;22.61;66.46;101162.88;5072350;28;20059;-55
2023/05/09 11:29:57;;;;;;;5.30;4.43;;;;;;;22.61;66.24;101162.03;5072433;28;20487;-55
2023/05/09 11:32:33;;;;;;;5.88;5.28;;;;;;;22.62;67.17;101161.88;5072367;28;20044;-55
2023/05/09 11:35:14;;;;;;;6.40;5.22;;;;;;;22.61;66.65;101153.94;5072645;28;20051;-55